Nearby METAR Reports

 

KMLE - Omaha/Millard, Nebraska, USA
Distance from station: NE 1mi, 2km
Updated: Fri, 20-Apr-2018 2:55pm CDT
Clear
Clear
 Wind from ESE
Wind: ESE 8 mph , 13 km/h, Gust: 16 mph , 26 km/h
Temperature: 61°F , 16°C
Dew Point: 32°F , 0°C
Humidity: 34%
Barometer: 30.31 inHg , 1026.4 hPa
Clouds: Clear
Visibility: 10 miles , 16 km
2018/04/20 19:55 KMLE 201955Z AUTO 11007G14KT 080V140 10SM CLR 16/00 A3031 RMK AO2 T01641004
KOFF - Offutt Afb/Belle, Nebraska, USA
Distance from station: ESE 12mi, 20km
Updated: Fri, 20-Apr-2018 2:56pm CDT
Clear
Clear
 Wind from ESE
Wind: ESE 16 mph , 26 km/h, Gust: 21 mph , 33 km/h
Temperature: 63°F , 17°C
Dew Point: 30°F , -1°C
Humidity: 30%
Barometer: 30.30 inHg , 1026.1 hPa
Clouds: Clear
Visibility: 10 miles , 16 km
2018/04/20 19:56 KOFF 201956Z AUTO 12014G18KT 10SM CLR 17/M01 A3030 RMK AO2 SLP268 T01681009 $
 
KOMA - Omaha/Eppley, Nebraska, USA
Distance from station: NE 15mi, 24km
Updated: Fri, 20-Apr-2018 2:52pm CDT
Overcast
Overcast
 Wind from SE
Wind: SE 14 mph , 22 km/h, Gust: 22 mph , 35 km/h
Temperature: 63°F , 17°C
Dew Point: 28°F , -2°C
Humidity: 27%
Barometer: 30.32 inHg , 1026.8 hPa
Clouds: Overcast
Visibility: 10 miles , 16 km
Cloud details: Few Clouds 18000 ft
Overcast 25000 ft
2018/04/20 19:52 KOMA 201952Z 13012G19KT 10SM FEW180 OVC250 17/M02 A3032 RMK AO2 SLP269 T01671022
KBTA - Blair Muni, Nebraska, USA
Distance from station: N 16mi, 25km
Updated: Fri, 20-Apr-2018 2:55pm CDT
Clear
Clear
 Wind from ESE
Wind: ESE 16 mph , 26 km/h, Gust: 20 mph , 31 km/h
Temperature: 61°F , 16°C
Dew Point: 30°F , -1°C
Humidity: 31%
Barometer: 30.31 inHg , 1026.4 hPa
Clouds: Clear
Visibility: 10 miles , 16 km
2018/04/20 19:55 KBTA 201955Z AUTO 12014G17KT 10SM CLR 16/M01 A3031 RMK AO2 T01571013
 
KCBF - Council Bluffs, Iowa, USA
Distance from station: ENE 20mi, 32km
Updated: Fri, 20-Apr-2018 2:55pm CDT
Clear
Clear
 Wind from ESE
Wind: ESE 13 mph , 20 km/h, Gust: 20 mph , 31 km/h
Temperature: 61°F , 16°C
Dew Point: 28°F , -2°C
Humidity: 29%
Barometer: 30.32 inHg , 1026.8 hPa
Clouds: Clear
Visibility: 10 miles , 16 km
2018/04/20 19:55 KCBF 201955Z AUTO 12011G17KT 10SM CLR 16/M02 A3032 RMK AO2
KPMV - Plattsmouth Muni, Nebraska, USA
Distance from station: SE 20mi, 32km
Updated: Fri, 20-Apr-2018 2:55pm CDT
Clear
Clear
 Wind from ESE
Wind: ESE 12 mph , 19 km/h
Temperature: 61°F , 16°C
Dew Point: 28°F , -2°C
Humidity: 29%
Barometer: 30.30 inHg , 1026.1 hPa
Clouds: Clear
Visibility: 10 miles , 16 km
2018/04/20 19:55 KPMV 201955Z AUTO 12010KT 10SM CLR 16/M02 A3030 RMK AO2 T01601025
 
KAHQ - Wahoo, Nebraska, USA
Distance from station: W 25mi, 40km
Updated: Fri, 20-Apr-2018 3:00pm CDT
Clear
Clear
 Wind from ESE
Wind: ESE 16 mph , 26 km/h, Gust: 25 mph , 41 km/h
Temperature: 61°F , 16°C
Dew Point: 23°F , -5°C
Humidity: 23%
Barometer: 30.29 inHg , 1025.7 hPa
Clouds: Clear
Visibility: 10 miles , 16 km
2018/04/20 20:00 KAHQ 202000Z AUTO 11014G22KT 10SM CLR 16/M05 A3029 RMK AO2 T01621049
KFET - Fremont Muni Arp, Nebraska, USA
Distance from station: NW 27mi, 43km
Updated: Fri, 20-Apr-2018 2:55pm CDT
Clear
Clear
 Wind from ESE
Wind: ESE 15 mph , 24 km/h, Gust: 22 mph , 35 km/h
Temperature: 63°F , 17°C
Dew Point: 30°F , -1°C
Humidity: 30%
Barometer: 30.30 inHg , 1026.1 hPa
Clouds: Clear
Visibility: 10 miles , 16 km
2018/04/20 19:55 KFET 201955Z AUTO 12013G19KT 10SM CLR 17/M01 A3030 RMK AO2 T01681009
 
KTQE - Tekamah, Nebraska, USA
Distance from station: N 40mi, 64km
Updated: Fri, 20-Apr-2018 2:54pm CDT
Clear
Clear
 Wind from SSE
Wind: SSE 14 mph , 22 km/h, Gust: 24 mph , 39 km/h
Temperature: 61°F , 16°C
Dew Point: 28°F , -2°C
Humidity: 29%
Barometer: 30.32 inHg , 1026.8 hPa
Clouds: Clear
Visibility: 10 miles , 16 km
2018/04/20 19:54 KTQE 201954Z AUTO 15012G21KT 10SM CLR 16/M02 A3032 RMK AO2 SLP268 T01611022
KLNK - Lincoln, Nebraska, USA
Distance from station: SW 41mi, 65km
Updated: Fri, 20-Apr-2018 2:54pm CDT
Clear
Clear
 Wind from SE
Wind: SE 16 mph , 26 km/h, Gust: 25 mph , 41 km/h
Temperature: 61°F , 16°C
Dew Point: 27°F , -3°C
Humidity: 27%
Barometer: 30.29 inHg , 1025.7 hPa
Clouds: Clear
Visibility: 10 miles , 16 km
2018/04/20 19:54 KLNK 201954Z 14014G22KT 10SM CLR 16/M03 A3029 RMK AO2 SLP263 T01611028
 
KAFK - Nebraska City, Nebraska, USA
Distance from station: SSE 43mi, 70km
Updated: Fri, 20-Apr-2018 2:55pm CDT
Clear
Clear
 Wind from SE
Wind: SE 15 mph , 24 km/h, Gust: 22 mph , 35 km/h
Temperature: 63°F , 17°C
Dew Point: 32°F , 0°C
Humidity: 32%
Barometer: 30.30 inHg , 1026.1 hPa
Clouds: Clear
Visibility: 10 miles , 16 km
2018/04/20 19:55 KAFK 201955Z AUTO 14013G19KT 10SM CLR 17/00 A3030 RMK AO2 T01691004
KRDK - Red Oak, Iowa, USA
Distance from station: ESE 47mi, 75km
Updated: Fri, 20-Apr-2018 2:55pm CDT
Clear
Clear
 Wind from SE
Wind: SE 16 mph , 26 km/h, Gust: 23 mph , 37 km/h
Temperature: 63°F , 17°C
Dew Point: 28°F , -2°C
Humidity: 27%
Barometer: 30.33 inHg , 1027.1 hPa
Clouds: Clear
Visibility: 10 miles , 16 km
2018/04/20 19:55 KRDK 201955Z AUTO 13014G20KT 10SM CLR 17/M02 A3033 RMK AO2
 
KSDA - Shenandoah Muni, Iowa, USA
Distance from station: SE 48mi, 77km
Updated: Fri, 20-Apr-2018 2:55pm CDT
Clear
Clear
 Wind from SSE
Wind: SSE 14 mph , 22 km/h, Gust: 23 mph , 37 km/h
Temperature: 63°F , 17°C
Dew Point: 28°F , -2°C
Humidity: 27%
Barometer: 30.32 inHg , 1026.8 hPa
Clouds: Clear
Visibility: 10 miles , 16 km
2018/04/20 19:55 KSDA 201955Z AUTO 15012G20KT 10SM CLR 17/M02 A3032 RMK AO2
KHNR - Harlan Muni, Iowa, USA
Distance from station: NE 49mi, 80km
Updated: Fri, 20-Apr-2018 2:55pm CDT
Clear
Clear
 Wind from SE
Wind: SE 14 mph , 22 km/h
Temperature: 59°F , 15°C
Dew Point: 27°F , -3°C
Humidity: 29%
Barometer: 30.37 inHg , 1028.4 hPa
Clouds: Clear
Visibility: 10 miles , 16 km
2018/04/20 19:55 KHNR 201955Z AUTO 13012KT 10SM CLR 15/M03 A3037 RMK AO2